| time (UTC) | temp C | wind direction | speed KPH | gust KPH | rain 1hr cm | rain 24hr cm | rain mn cm | humidity % | barometer mb |
| 20260507000546 | -17 | 0.0 | 0.0 | 0.00 | 0.00 | 0.00 | 1009.2 | ||
| 20260506235525 | -17 | 0.0 | 0.0 | 0.00 | 0.00 | 0.00 | 1009.2 | ||
| 20260506234525 | -17 | 0.0 | 0.0 | 0.00 | 0.00 | 0.00 | 1009.2 | ||
| 20260506233604 | -17 | 0.0 | 0.0 | 0.00 | 0.00 | 0.00 | 1009.2 | ||
| 20260506232525 | -17 | 0.0 | 0.0 | 0.00 | 0.00 | 0.00 | 1009.2 | ||
| 20260506231519 | -17 | 0.0 | 0.0 | 0.00 | 0.00 | 0.00 | 1009.2 | ||
| 20260506230526 | -17 | 0.0 | 0.0 | 0.00 | 0.00 | 0.00 | 1009.2 | ||
| 20260506225525 | -17 | 0.0 | 0.0 | 0.00 | 0.00 | 0.00 | 1009.2 | ||
| 20260506224526 | -17 | 0.0 | 0.0 | 0.00 | 0.00 | 0.00 | 1009.2 | ||
| 20260506223546 | -17 | 0.0 | 0.0 | 0.00 | 0.00 | 0.00 | 1009.2 | ||
| 20260506222526 | -17 | 0.0 | 0.0 | 0.00 | 0.00 | 0.00 | 1009.2 | ||
| 20260506221607 | -17 | 0.0 | 0.0 | 0.00 | 0.00 | 0.00 | 1009.2 | ||
| 20260506220527 | -17 | 0.0 | 0.0 | 0.00 | 0.00 | 0.00 | 1009.2 | ||
| 20260506215526 | -17 | 0.0 | 0.0 | 0.00 | 0.00 | 0.00 | 1009.2 | ||
| 20260506214526 | -17 | 0.0 | 0.0 | 0.00 | 0.00 | 0.00 | 1009.2 | ||
| 20260506213520 | -17 | 0.0 | 0.0 | 0.00 | 0.00 | 0.00 | 1009.2 | ||
| 20260506212520 | -17 | 0.0 | 0.0 | 0.00 | 0.00 | 0.00 | 1009.4 | ||
| 20260506211519 | -17 | 0.0 | 0.0 | 0.00 | 0.00 | 0.00 | 1009.6 | ||
| 20260506210520 | -17 | 0.0 | 0.0 | 0.00 | 0.00 | 0.00 | 1009.6 | ||
| 20260506205519 | -17 | 0.0 | 0.0 | 0.00 | 0.00 | 0.00 | 1009.6 | ||
| 20260506204519 | -17 | 0.0 | 0.0 | 0.00 | 0.00 | 0.00 | 1009.6 | ||
| 20260506203519 | -17 | 0.0 | 0.0 | 0.00 | 0.00 | 0.00 | 1009.7 | ||
| 20260506202518 | 15 | 296 | 4.8 | 11.3 | 0.00 | 0.00 | 0.00 | 99 | 1009.9 |
| 20260506201517 | 15 | 284 | 4.8 | 11.3 | 0.00 | 0.00 | 0.00 | 99 | 1009.9 |
| 20260506200524 | 15 | 338 | 4.8 | 8.0 | 0.00 | 0.00 | 0.00 | 99 | 1009.9 |
| 20260506195518 | 15 | 310 | 4.8 | 12.9 | 0.00 | 0.00 | 0.00 | 99 | 1009.9 |
| 20260506194530 | 16 | 336 | 4.8 | 8.0 | 0.00 | 0.00 | 0.00 | 99 | 1009.9 |
| 20260506193531 | 16 | 309 | 4.8 | 12.9 | 0.00 | 0.00 | 0.00 | 99 | 1010.1 |
| 20260506192525 | 16 | 337 | 3.2 | 4.8 | 0.00 | 0.00 | 0.00 | 97 | 1010.1 |
| 20260506191526 | 17 | 312 | 3.2 | 6.4 | 0.00 | 0.00 | 0.00 | 93 | 1010.1 |
| 20260506190526 | 17 | 23 | 3.2 | 8.0 | 0.00 | 0.00 | 0.00 | 90 | 1010.2 |
| 20260506185525 | 18 | 23 | 4.8 | 9.7 | 0.00 | 0.00 | 0.00 | 84 | 1010.4 |
| 20260506184525 | 18 | 262 | 4.8 | 14.5 | 0.00 | 0.00 | 0.00 | 82 | 1010.6 |
| 20260506183525 | 18 | 339 | 4.8 | 8.0 | 0.00 | 0.00 | 0.00 | 79 | 1010.4 |
| 20260506182525 | 19 | 326 | 4.8 | 8.0 | 0.00 | 0.00 | 0.00 | 78 | 1010.6 |
| 20260506181519 | 20 | 207 | 4.8 | 8.0 | 0.00 | 0.00 | 0.00 | 76 | 1010.6 |
| 20260506180531 | 20 | 324 | 4.8 | 8.0 | 0.00 | 0.00 | 0.00 | 74 | 1010.8 |
| 20260506175531 | 20 | 286 | 4.8 | 8.0 | 0.00 | 0.00 | 0.00 | 73 | 1010.9 |
| 20260506174532 | 21 | 265 | 4.8 | 9.7 | 0.00 | 0.00 | 0.00 | 71 | 1010.9 |
| 20260506173532 | 22 | 252 | 4.8 | 9.7 | 0.00 | 0.00 | 0.00 | 70 | 1010.9 |
| 20260506172532 | 22 | 304 | 4.8 | 8.0 | 0.00 | 0.00 | 0.00 | 69 | 1011.1 |
| 20260506171527 | 23 | 292 | 6.4 | 14.5 | 0.00 | 0.00 | 0.00 | 67 | 1011.1 |
| 20260506170527 | 22 | 285 | 4.8 | 9.7 | 0.00 | 0.00 | 0.00 | 68 | 1010.9 |
| 20260506165525 | 23 | 270 | 6.4 | 11.3 | 0.00 | 0.00 | 0.00 | 66 | 1011.0 |
| 20260506164526 | 24 | 269 | 4.8 | 8.0 | 0.00 | 0.00 | 0.00 | 65 | 1011.1 |
| 20260506163601 | 22 | 339 | 8.0 | 14.5 | 0.00 | 0.00 | 0.00 | 68 | 1011.4 |
| 20260506162521 | 22 | 330 | 6.4 | 11.3 | 0.00 | 0.00 | 0.00 | 68 | 1011.6 |
| 20260506161541 | 23 | 58 | 4.8 | 12.9 | 0.00 | 0.00 | 0.00 | 67 | 1011.6 |
| 20260506160542 | 23 | 277 | 6.4 | 16.1 | 0.00 | 0.00 | 0.00 | 66 | 1011.7 |
| 20260506155522 | 23 | 284 | 4.8 | 11.3 | 0.00 | 0.00 | 0.00 | 66 | 1011.8 |
| 20260506154522 | 23 | 293 | 6.4 | 11.3 | 0.00 | 0.00 | 0.00 | 65 | 1011.8 |
| 20260506153523 | 23 | 307 | 4.8 | 9.7 | 0.00 | 0.00 | 0.00 | 65 | 1012.1 |
| 20260506152523 | 25 | 269 | 4.8 | 9.7 | 0.00 | 0.00 | 0.00 | 63 | 1012.1 |
| 20260506151537 | 25 | 281 | 4.8 | 9.7 | 0.00 | 0.00 | 0.00 | 63 | 1012.1 |
| 20260506150537 | 24 | 25 | 6.4 | 11.3 | 0.00 | 0.00 | 0.00 | 65 | 1012.1 |
| 20260506145523 | 23 | 319 | 6.4 | 12.9 | 0.00 | 0.00 | 0.00 | 69 | 1012.1 |
| 20260506144557 | 22 | 341 | 1.6 | 6.4 | 0.00 | 0.00 | 0.00 | 70 | 1012.1 |
| 20260506143530 | 21 | 262 | 6.4 | 11.3 | 0.00 | 0.00 | 0.00 | 72 | 1012.1 |
| 20260506142525 | 21 | 324 | 4.8 | 9.7 | 0.00 | 0.00 | 0.00 | 71 | 1011.9 |
| 20260506141525 | 22 | 209 | 4.8 | 9.7 | 0.00 | 0.00 | 0.00 | 70 | 1012.3 |
| 20260506140525 | 22 | 3 | 3.2 | 6.4 | 0.00 | 0.00 | 0.00 | 71 | 1012.0 |
| 20260506135545 | 21 | 333 | 4.8 | 6.4 | 0.00 | 0.00 | 0.00 | 73 | 1012.0 |
| 20260506134525 | 21 | 290 | 6.4 | 16.1 | 0.00 | 0.00 | 0.00 | 73 | 1012.1 |
| 20260506133525 | 21 | 256 | 3.2 | 4.8 | 0.00 | 0.00 | 0.00 | 74 | 1012.4 |
| 20260506132524 | 21 | 228 | 4.8 | 8.0 | 0.00 | 0.00 | 0.00 | 74 | 1012.6 |
| 20260506131525 | 20 | 266 | 4.8 | 8.0 | 0.00 | 0.00 | 0.00 | 77 | 1012.6 |
| 20260506130519 | 20 | 355 | 3.2 | 6.4 | 0.00 | 0.00 | 0.00 | 79 | 1012.6 |
| 20260506125531 | 19 | 287 | 4.8 | 9.7 | 0.00 | 0.00 | 0.00 | 80 | 1012.7 |
| 20260506124531 | 18 | 342 | 3.2 | 4.8 | 0.00 | 0.00 | 0.00 | 83 | 1012.8 |
| 20260506123532 | 18 | 267 | 3.2 | 8.0 | 0.00 | 0.00 | 0.00 | 84 | 1012.6 |
| 20260506122532 | 17 | 294 | 4.8 | 9.7 | 0.00 | 0.00 | 0.00 | 87 | 1012.6 |
| 20260506121533 | 17 | 107 | 4.8 | 8.0 | 0.00 | 0.00 | 0.00 | 87 | 1012.6 |
| 20260506120532 | 17 | 241 | 4.8 | 8.0 | 0.00 | 0.00 | 0.00 | 89 | 1012.9 |
| 20260506115527 | 16 | 305 | 3.2 | 9.7 | 0.00 | 0.00 | 0.00 | 91 | 1013.0 |
| 20260506114526 | 16 | 348 | 4.8 | 8.0 | 0.00 | 0.00 | 0.00 | 91 | 1013.1 |
| 20260506113546 | 16 | 287 | 4.8 | 11.3 | 0.00 | 0.00 | 0.00 | 91 | 1013.1 |
| 20260506112521 | 16 | 227 | 3.2 | 9.7 | 0.00 | 0.00 | 0.00 | 92 | 1013.1 |
| 20260506111521 | 15 | 325 | 4.8 | 12.9 | 0.00 | 0.00 | 0.00 | 94 | 1013.1 |
| 20260506110522 | 15 | 291 | 6.4 | 11.3 | 0.00 | 0.00 | 0.00 | 97 | 1013.1 |
| 20260506105522 | 15 | 342 | 3.2 | 8.0 | 0.00 | 0.00 | 0.00 | 98 | 1013.0 |
| 20260506104522 | 15 | 348 | 1.6 | 4.8 | 0.00 | 0.00 | 0.00 | 98 | 1013.0 |
| 20260506103517 | 14 | 8 | 4.8 | 6.4 | 0.00 | 0.00 | 0.00 | 98 | 1013.0 |
| 20260506102517 | 14 | 349 | 3.2 | 6.4 | 0.00 | 0.00 | 0.00 | 98 | 1012.9 |
| 20260506101537 | 14 | 296 | 3.2 | 6.4 | 0.00 | 0.00 | 0.00 | 98 | 1013.0 |
| 20260506100518 | 14 | 313 | 3.2 | 6.4 | 0.00 | 0.00 | 0.00 | 98 | 1012.9 |
| 20260506095516 | 14 | 300 | 1.6 | 4.8 | 0.00 | 0.00 | 0.00 | 98 | 1012.8 |
| 20260506094523 | 14 | 302 | 3.2 | 4.8 | 0.00 | 0.00 | 0.00 | 97 | 1012.6 |
| 20260506093517 | 14 | 316 | 1.6 | 4.8 | 0.00 | 0.00 | 0.00 | 97 | 1012.6 |
| 20260506092530 | 14 | 3 | 3.2 | 9.7 | 0.00 | 0.00 | 0.00 | 96 | 1012.9 |
| 20260506091531 | 14 | 300 | 3.2 | 12.9 | 0.00 | 0.00 | 0.00 | 96 | 1012.8 |
| 20260506090531 | 15 | 283 | 4.8 | 11.3 | 0.00 | 0.00 | 0.00 | 95 | 1012.8 |
| 20260506085530 | 15 | 320 | 3.2 | 6.4 | 0.00 | 0.00 | 0.00 | 95 | 1012.9 |
| 20260506084525 | 15 | 312 | 4.8 | 8.0 | 0.00 | 0.00 | 0.00 | 95 | 1013.0 |
| 20260506083526 | 15 | 298 | 4.8 | 9.7 | 0.00 | 0.00 | 0.00 | 94 | 1013.0 |
| 20260506082527 | 15 | 270 | 3.2 | 8.0 | 0.00 | 0.00 | 0.00 | 94 | 1013.0 |
| 20260506081526 | 15 | 314 | 4.8 | 14.5 | 0.00 | 0.00 | 0.00 | 93 | 1013.0 |
| 20260506080526 | 15 | 314 | 4.8 | 8.0 | 0.00 | 0.00 | 0.00 | 92 | 1013.0 |
| 20260506073519 | 15 | 275 | 4.8 | 8.0 | 0.00 | 0.00 | 0.00 | 91 | 1013.0 |
| 20260506072539 | 15 | 285 | 4.8 | 6.4 | 0.00 | 0.00 | 0.00 | 90 | 1013.0 |
| 20260506071520 | 15 | 296 | 4.8 | 9.7 | 0.00 | 0.00 | 0.00 | 90 | 1012.9 |
| 20260506070600 | 15 | 308 | 4.8 | 9.7 | 0.00 | 0.00 | 0.00 | 89 | 1012.8 |
| 20260506061520 | 15 | 358 | 4.8 | 6.4 | 0.00 | 0.00 | 0.00 | 89 | 1012.8 |
| 20260506060521 | 15 | 292 | 3.2 | 6.4 | 0.00 | 0.00 | 0.00 | 88 | 1012.9 |
| 20260506050538 | 16 | 304 | 6.4 | 11.3 | 0.00 | 0.00 | 0.00 | 83 | 1013.2 |
| 20260506044517 | 16 | 247 | 4.8 | 11.3 | 0.00 | 0.00 | 0.00 | 82 | 1013.3 |
| 20260506043523 | 16 | 285 | 4.8 | 9.7 | 0.00 | 0.00 | 0.00 | 81 | 1013.3 |
| 20260506042517 | 16 | 316 | 4.8 | 11.3 | 0.00 | 0.00 | 0.00 | 81 | 1013.1 |
| 20260506041550 | 16 | 276 | 4.8 | 6.4 | 0.00 | 0.00 | 0.00 | 80 | 1013.1 |
| 20260506040530 | 16 | 268 | 4.8 | 8.0 | 0.00 | 0.00 | 0.00 | 80 | 1013.1 |
| 20260506035610 | 16 | 325 | 4.8 | 8.0 | 0.00 | 0.00 | 0.00 | 79 | 1013.1 |
| 20260506034530 | 16 | 305 | 3.2 | 4.8 | 0.00 | 0.00 | 0.00 | 79 | 1013.1 |
| 20260506033551 | 16 | 313 | 4.8 | 8.0 | 0.00 | 0.00 | 0.00 | 78 | 1013.1 |
| 20260506032531 | 16 | 301 | 3.2 | 11.3 | 0.00 | 0.00 | 0.00 | 77 | 1013.1 |
| 20260506031530 | 16 | 279 | 4.8 | 6.4 | 0.00 | 0.00 | 0.00 | 77 | 1013.0 |
| 20260506030531 | 16 | 280 | 4.8 | 8.0 | 0.00 | 0.00 | 0.00 | 77 | 1013.0 |
| 20260506025525 | 16 | 256 | 4.8 | 9.7 | 0.00 | 0.00 | 0.00 | 77 | 1013.0 |
| 20260506024519 | 16 | 294 | 4.8 | 8.0 | 0.00 | 0.00 | 0.00 | 76 | 1013.1 |
| 20260506023531 | 16 | 308 | 4.8 | 12.9 | 0.00 | 0.00 | 0.00 | 76 | 1013.0 |
| 20260506022532 | 16 | 37 | 4.8 | 9.7 | 0.00 | 0.00 | 0.00 | 76 | 1012.8 |
| 20260506021532 | 16 | 296 | 4.8 | 11.3 | 0.00 | 0.00 | 0.00 | 77 | 1012.9 |
| 20260506020533 | 16 | 286 | 4.8 | 11.3 | 0.00 | 0.00 | 0.00 | 77 | 1012.9 |
| 20260506015533 | 16 | 265 | 4.8 | 8.0 | 0.00 | 0.00 | 0.00 | 77 | 1012.9 |
| 20260506014533 | 16 | 266 | 3.2 | 6.4 | 0.00 | 0.00 | 0.00 | 77 | 1012.9 |
| 20260506013516 | 16 | 323 | 4.8 | 11.3 | 0.00 | 0.00 | 0.00 | 77 | 1012.8 |
| 20260506012516 | 16 | 253 | 4.8 | 19.3 | 0.00 | 0.00 | 0.00 | 76 | 1012.8 |
| 20260506011535 | 16 | 279 | 4.8 | 9.7 | 0.00 | 0.00 | 0.00 | 76 | 1012.6 |
| 20260506010543 | 16 | 259 | 4.8 | 9.7 | 0.00 | 0.00 | 0.00 | 76 | 1012.6 |
| 20260506005517 | 16 | 302 | 3.2 | 6.4 | 0.00 | 0.00 | 0.00 | 76 | 1012.5 |
| 20260506004529 | 16 | 316 | 3.2 | 6.4 | 0.00 | 0.00 | 0.00 | 76 | 1012.4 |
| 20260506003530 | 16 | 255 | 4.8 | 8.0 | 0.00 | 0.00 | 0.00 | 75 | 1012.3 |
| 20260506002530 | 16 | 288 | 4.8 | 8.0 | 0.00 | 0.00 | 0.00 | 75 | 1012.1 |
| 20260506001530 | 16 | 317 | 3.2 | 6.4 | 0.00 | 0.00 | 0.00 | 75 | 1011.9 |